This is the latest recevied weather packets stored in our database for station/object OE6ACM-14. If no packets are shown the sender has not sent any weather packets the latest 10 day(s).
| Time | Temp. | Humidity | Pressure | Rain* | Wind** | Luminosity | Snow |
|---|---|---|---|---|---|---|---|
| 1777886344 | 32.78° C | 18% | 926.5 hPa | - | - | - | - |
| 1777886044 | 33.33° C | 18% | 926.5 hPa | - | - | - | - |
| 1777885744 | 33.89° C | 17% | 926.6 hPa | - | - | - | - |
| 1777885444 | 33.33° C | 19% | 926.7 hPa | - | - | - | - |
| 1777885144 | 33.33° C | 18% | 926.7 hPa | - | - | - | - |
| 1777884844 | 33.89° C | 18% | 926.7 hPa | - | - | - | - |
| 1777884544 | 33.89° C | 18% | 926.8 hPa | - | - | - | - |
| 1777884244 | 34.44° C | 18% | 926.8 hPa | - | - | - | - |
| 1777883944 | 33.89° C | 18% | 926.8 hPa | - | - | - | - |
| 1777883644 | 33.89° C | 18% | 926.9 hPa | - | - | - | - |
| 1777883344 | 33.33° C | 19% | 926.9 hPa | - | - | - | - |
| 1777883044 | 33.33° C | 20% | 926.9 hPa | - | - | - | - |
| 1777882744 | 32.78° C | 21% | 926.9 hPa | - | - | - | - |
| 1777882444 | 32.78° C | 21% | 927 hPa | - | - | - | - |
| 1777882144 | 32.78° C | 21% | 927 hPa | - | - | - | - |
| 1777881844 | 35° C | 18% | 927 hPa | - | - | - | - |
| 1777881544 | 34.44° C | 19% | 927 hPa | - | - | - | - |
| 1777881244 | 31.11° C | 24% | 927 hPa | - | - | - | - |
| 1777880944 | 27.78° C | 26% | 927 hPa | - | - | - | - |
| 1777880644 | 28.89° C | 24% | 927.1 hPa | - | - | - | - |
| 1777880344 | 30.56° C | 24% | 927.1 hPa | - | - | - | - |
| 1777880044 | 32.22° C | 22% | 927 hPa | - | - | - | - |
| 1777879744 | 30.56° C | 23% | 927.1 hPa | - | - | - | - |
| 1777879444 | 32.22° C | 22% | 927.1 hPa | - | - | - | - |
| 1777879144 | 33.33° C | 22% | 927.1 hPa | - | - | - | - |
* Rain since midnight (hover to see other rain measurements)
** Current wind speed in m/s (hover to see current wind gust speed)